createdAt,value
2018-12-22T00:00:21.588Z,49.90
2018-12-22T00:01:23.035Z,48.17
2018-12-22T00:02:24.790Z,48.92
2018-12-22T00:03:26.181Z,49.85
2018-12-22T00:04:27.663Z,47.38
2018-12-22T00:05:29.072Z,49.38
2018-12-22T00:06:30.510Z,49.77
2018-12-22T00:07:31.942Z,47.93
2018-12-22T00:08:33.341Z,49.95
2018-12-22T00:09:34.733Z,48.95
2018-12-22T00:10:36.125Z,48.42
2018-12-22T00:11:37.658Z,48.15
2018-12-22T00:12:39.094Z,49.73
2018-12-22T00:13:40.477Z,47.58
2018-12-22T00:14:42.006Z,47.43
2018-12-22T00:15:43.553Z,46.98
2018-12-22T00:16:45.024Z,45.83
2018-12-22T00:17:46.503Z,45.70
2018-12-22T00:18:47.996Z,44.80
2018-12-22T00:19:49.658Z,45.78
2018-12-22T00:20:51.176Z,45.73
2018-12-22T00:21:52.664Z,44.20
2018-12-22T00:22:54.165Z,44.73
2018-12-22T00:23:55.658Z,45.40
2018-12-22T00:24:57.107Z,48.50
2018-12-22T00:25:58.637Z,44.30
2018-12-22T00:27:00.163Z,41.90
2018-12-22T00:28:01.621Z,45.80
2018-12-22T00:29:03.037Z,44.20
2018-12-22T00:30:04.446Z,44.75
2018-12-22T00:31:05.855Z,44.58
2018-12-22T00:32:07.269Z,45.45
2018-12-22T00:33:08.672Z,45.65
2018-12-22T00:34:10.052Z,46.83
2018-12-22T00:35:11.505Z,49.03
2018-12-22T00:36:12.931Z,45.45
2018-12-22T00:37:14.297Z,46.98
2018-12-22T00:38:15.656Z,45.55
2018-12-22T00:39:17.012Z,46.02
2018-12-22T00:40:18.456Z,45.48
2018-12-22T00:41:19.825Z,45.88
2018-12-22T00:42:21.209Z,49.35
2018-12-22T00:43:22.580Z,46.85
2018-12-22T00:44:23.968Z,44.03
2018-12-22T00:45:25.461Z,45.33
2018-12-22T00:46:26.966Z,44.45
2018-12-22T00:47:28.544Z,42.17
2018-12-22T00:48:30.096Z,42.50
2018-12-22T00:49:31.523Z,42.75
2018-12-22T00:50:33.022Z,44.65
2018-12-22T00:51:34.419Z,45.25
2018-12-22T00:52:35.813Z,43.95
2018-12-22T00:53:37.869Z,45.70
2018-12-22T00:54:39.269Z,43.70
2018-12-22T00:55:40.768Z,43.63
2018-12-22T00:56:42.256Z,44.85
2018-12-22T00:57:43.758Z,43.50
2018-12-22T00:58:45.241Z,45.45
2018-12-22T00:59:46.702Z,44.20
2018-12-22T01:00:48.277Z,43.98
2018-12-22T01:01:49.763Z,44.20
2018-12-22T01:02:51.138Z,44.58
2018-12-22T01:03:52.545Z,44.30
2018-12-22T01:04:53.924Z,43.55
2018-12-22T01:05:55.350Z,40.73
2018-12-22T01:06:56.723Z,38.30
2018-12-22T01:07:58.104Z,42.15
2018-12-22T01:08:59.492Z,41.53
2018-12-22T01:10:00.861Z,42.38
2018-12-22T01:11:02.311Z,42.30
2018-12-22T01:12:03.777Z,41.92
2018-12-22T01:13:05.257Z,40.95
2018-12-22T01:14:06.649Z,40.78
2018-12-22T01:15:08.040Z,41.35
2018-12-22T01:16:09.585Z,43.60
2018-12-22T01:17:11.064Z,52.65
2018-12-22T01:18:12.514Z,46.85
2018-12-22T01:19:13.890Z,44.13
2018-12-22T01:20:15.292Z,42.55
2018-12-22T01:21:16.775Z,46.25
2018-12-22T01:22:18.141Z,43.90
2018-12-22T01:23:19.525Z,41.15
2018-12-22T01:24:20.894Z,39.33
2018-12-22T01:25:22.405Z,39.78
2018-12-22T01:26:23.911Z,39.50
2018-12-22T01:27:25.394Z,41.88
2018-12-22T01:28:26.874Z,38.30
2018-12-22T01:29:28.350Z,36.77
2018-12-22T01:30:29.821Z,39.80
2018-12-22T01:31:31.246Z,39.38
2018-12-22T01:32:32.639Z,38.85
2018-12-22T01:33:34.029Z,40.00
2018-12-22T01:34:35.389Z,41.10
2018-12-22T01:35:36.764Z,39.00
2018-12-22T01:36:38.188Z,38.63
2018-12-22T01:37:39.585Z,38.73
2018-12-22T01:38:40.965Z,39.53
2018-12-22T01:39:42.360Z,36.28
2018-12-22T01:40:43.709Z,34.88
2018-12-22T01:41:45.226Z,36.05
2018-12-22T01:42:46.632Z,35.48
2018-12-22T01:43:48.004Z,36.05
2018-12-22T01:44:49.369Z,35.17
2018-12-22T01:45:50.853Z,37.05
2018-12-22T01:46:52.355Z,34.23
2018-12-22T01:47:53.809Z,35.08
2018-12-22T01:48:55.281Z,34.92
2018-12-22T01:49:56.655Z,35.03
2018-12-22T01:50:58.029Z,34.18
2018-12-22T01:51:59.472Z,36.68
2018-12-22T01:53:00.853Z,37.40
2018-12-22T01:54:02.323Z,37.65
2018-12-22T01:55:03.741Z,36.88
2018-12-22T01:56:05.216Z,39.78
2018-12-22T01:57:06.734Z,33.73
2018-12-22T01:58:08.217Z,36.42
2018-12-22T01:59:09.580Z,34.45
2018-12-22T02:00:10.972Z,34.60
2018-12-22T02:01:12.437Z,36.58
2018-12-22T02:02:13.942Z,35.90
2018-12-22T02:03:15.448Z,34.35
2018-12-22T02:04:16.993Z,35.68
2018-12-22T02:05:18.510Z,37.17
2018-12-22T02:06:19.978Z,35.10
2018-12-22T02:07:21.509Z,35.25
2018-12-22T02:08:22.992Z,35.58
2018-12-22T02:09:24.474Z,36.10
2018-12-22T02:10:25.947Z,35.78
2018-12-22T02:11:27.448Z,35.50
2018-12-22T02:12:28.881Z,38.92
2018-12-22T02:13:30.370Z,36.68
2018-12-22T02:14:31.755Z,37.53
2018-12-22T02:15:33.214Z,36.33
2018-12-22T02:16:34.714Z,35.58
2018-12-22T02:17:36.253Z,36.20
2018-12-22T02:18:37.750Z,37.88
2018-12-22T02:19:39.235Z,36.63
2018-12-22T02:20:40.706Z,37.10
2018-12-22T02:21:42.182Z,37.70
2018-12-22T02:22:43.706Z,37.80
2018-12-22T02:23:45.069Z,39.35
2018-12-22T02:24:46.452Z,38.50
2018-12-22T02:25:47.956Z,39.85
2018-12-22T02:26:49.444Z,38.78
2018-12-22T02:27:50.978Z,40.60
2018-12-22T02:28:56.612Z,38.83
2018-12-22T02:29:55.885Z,38.67
2018-12-22T02:30:57.280Z,40.23
2018-12-22T02:31:58.654Z,37.58
2018-12-22T02:33:00.081Z,39.78
2018-12-22T02:34:01.458Z,39.48
2018-12-22T02:35:02.830Z,40.25
2018-12-22T02:36:04.204Z,38.45
2018-12-22T02:37:05.574Z,38.35
2018-12-22T02:38:07.361Z,38.78
2018-12-22T02:39:08.735Z,39.15
2018-12-22T02:40:10.118Z,40.98
2018-12-22T02:41:11.509Z,38.60
2018-12-22T02:42:14.107Z,40.55
2018-12-22T02:43:15.689Z,39.15
2018-12-22T02:44:17.150Z,39.10
2018-12-22T02:45:18.531Z,40.25
2018-12-22T02:46:19.912Z,39.67
2018-12-22T02:47:21.305Z,39.70
2018-12-22T02:48:22.726Z,39.60
2018-12-22T02:49:24.097Z,40.83
2018-12-22T02:50:25.476Z,40.98
2018-12-22T02:51:26.956Z,42.73
2018-12-22T02:52:28.444Z,44.25
2018-12-22T02:53:30.011Z,42.58
2018-12-22T02:54:31.495Z,41.02
2018-12-22T02:55:32.893Z,42.48
2018-12-22T02:56:34.292Z,42.67
2018-12-22T02:57:35.673Z,42.70
2018-12-22T02:58:37.113Z,42.20
2018-12-22T02:59:38.527Z,41.55
2018-12-22T03:00:39.917Z,43.42
2018-12-22T03:01:41.341Z,40.83
2018-12-22T03:02:42.844Z,39.55
2018-12-22T03:03:44.373Z,38.60
2018-12-22T03:04:45.877Z,40.08
2018-12-22T03:05:47.366Z,41.10
2018-12-22T03:06:48.881Z,39.45
2018-12-22T03:07:50.393Z,39.25
2018-12-22T03:08:51.945Z,37.63
2018-12-22T03:09:53.422Z,37.85
2018-12-22T03:10:54.914Z,38.23
2018-12-22T03:11:56.397Z,37.73
2018-12-22T03:12:57.878Z,36.88
2018-12-22T03:13:59.396Z,36.60
2018-12-22T03:15:00.860Z,37.20
2018-12-22T03:16:02.310Z,36.13
2018-12-22T03:17:03.758Z,35.80
2018-12-22T03:18:05.732Z,35.85
2018-12-22T03:19:07.281Z,35.43
2018-12-22T03:20:08.769Z,36.48
2018-12-22T03:21:10.223Z,36.13
2018-12-22T03:22:11.700Z,35.38
2018-12-22T03:23:13.182Z,36.13
2018-12-22T03:24:14.713Z,37.13
2018-12-22T03:25:16.094Z,38.30
2018-12-22T03:26:17.463Z,36.93
2018-12-22T03:27:18.865Z,36.75
2018-12-22T03:28:20.249Z,37.67
2018-12-22T03:29:21.778Z,36.80
2018-12-22T03:30:23.239Z,38.10
2018-12-22T03:31:24.809Z,38.90
2018-12-22T03:32:26.340Z,39.05
2018-12-22T03:33:27.816Z,39.80
2018-12-22T03:34:29.236Z,40.03
2018-12-22T03:35:31.428Z,38.13
2018-12-22T03:36:32.894Z,36.73
2018-12-22T03:37:34.379Z,36.45
2018-12-22T03:38:35.845Z,36.95
2018-12-22T03:39:37.363Z,36.77
2018-12-22T03:40:38.841Z,37.75
2018-12-22T03:41:40.215Z,35.70
2018-12-22T03:42:41.724Z,37.55
2018-12-22T03:43:43.308Z,36.40
2018-12-22T03:44:44.842Z,37.55
2018-12-22T03:45:46.299Z,36.25
2018-12-22T03:46:47.789Z,35.17
2018-12-22T03:47:49.282Z,34.67
2018-12-22T03:48:50.720Z,35.55
2018-12-22T03:49:52.269Z,35.38
2018-12-22T03:50:53.621Z,35.75
2018-12-22T03:51:55.013Z,34.80
2018-12-22T03:52:56.399Z,34.67
2018-12-22T03:53:57.889Z,34.92
2018-12-22T03:54:59.394Z,35.78
2018-12-22T03:56:00.875Z,36.77
2018-12-22T03:57:02.357Z,35.48
2018-12-22T03:58:03.893Z,34.73
2018-12-22T03:59:05.639Z,33.20
2018-12-22T04:00:07.213Z,34.05
2018-12-22T04:01:08.723Z,32.98
2018-12-22T04:02:10.234Z,31.40
2018-12-22T04:03:11.997Z,33.08
2018-12-22T04:04:13.587Z,31.37
2018-12-22T04:05:15.034Z,30.25
2018-12-22T04:06:16.393Z,31.25
2018-12-22T04:07:17.790Z,31.93
2018-12-22T04:08:19.214Z,34.13
2018-12-22T04:09:20.586Z,31.93
2018-12-22T04:10:22.006Z,30.90
2018-12-22T04:11:23.494Z,31.77
2018-12-22T04:12:24.980Z,30.72
2018-12-22T04:13:26.438Z,30.30
2018-12-22T04:14:27.807Z,32.15
2018-12-22T04:15:29.465Z,30.65
2018-12-22T04:16:30.961Z,29.82
2018-12-22T04:17:32.424Z,32.10
2018-12-22T04:18:33.897Z,37.03
2018-12-22T04:19:35.377Z,33.05
2018-12-22T04:20:37.071Z,33.78
2018-12-22T04:21:38.570Z,34.35
2018-12-22T04:22:40.064Z,31.97
2018-12-22T04:23:41.564Z,31.10
2018-12-22T04:24:43.029Z,31.95
2018-12-22T04:25:44.670Z,31.37
2018-12-22T04:26:46.178Z,32.53
2018-12-22T04:27:47.761Z,28.70
2018-12-22T04:28:49.297Z,28.15
2018-12-22T04:29:50.766Z,28.00
2018-12-22T04:30:52.197Z,27.87
2018-12-22T04:31:53.585Z,26.77
2018-12-22T04:32:54.963Z,26.70
2018-12-22T04:33:56.341Z,26.10
2018-12-22T04:34:57.709Z,28.57
2018-12-22T04:35:59.133Z,26.65
2018-12-22T04:37:00.513Z,25.55
2018-12-22T04:38:01.919Z,27.62
2018-12-22T04:39:03.293Z,27.02
2018-12-22T04:40:04.677Z,27.02
2018-12-22T04:41:06.086Z,27.00
2018-12-22T04:42:07.457Z,26.33
2018-12-22T04:43:08.826Z,27.62
2018-12-22T04:44:10.206Z,27.82
2018-12-22T04:45:11.699Z,27.60
2018-12-22T04:46:13.312Z,27.82
2018-12-22T04:47:14.780Z,28.73
2018-12-22T04:48:16.261Z,27.25
2018-12-22T04:49:17.818Z,27.07
2018-12-22T04:50:19.310Z,27.98
2018-12-22T04:51:20.914Z,28.07
2018-12-22T04:52:22.369Z,28.62
2018-12-22T04:53:23.818Z,27.60
2018-12-22T04:54:25.310Z,28.05
2018-12-22T04:55:26.775Z,28.27
2018-12-22T04:56:28.454Z,29.07
2018-12-22T04:57:29.944Z,28.55
2018-12-22T04:58:31.428Z,28.45
2018-12-22T04:59:33.010Z,29.67
2018-12-22T05:00:34.499Z,28.52
2018-12-22T05:01:36.024Z,27.48
2018-12-22T05:02:37.516Z,26.55
2018-12-22T05:03:39.048Z,26.10
2018-12-22T05:04:40.451Z,27.87
2018-12-22T05:05:41.838Z,28.60
2018-12-22T05:06:43.374Z,27.60
2018-12-22T05:07:45.130Z,27.85
2018-12-22T05:08:46.638Z,26.48
2018-12-22T05:09:48.100Z,24.77
2018-12-22T05:10:49.587Z,26.05
2018-12-22T05:11:50.997Z,24.60
2018-12-22T05:12:52.381Z,24.15
2018-12-22T05:13:53.861Z,24.75
2018-12-22T05:14:55.354Z,24.47
2018-12-22T05:15:56.705Z,24.45
2018-12-22T05:16:58.150Z,25.52
2018-12-22T05:17:59.542Z,25.92
2018-12-22T05:19:01.032Z,25.90
2018-12-22T05:20:02.507Z,25.68
2018-12-22T05:21:03.882Z,28.02
2018-12-22T05:22:05.501Z,27.87
2018-12-22T05:23:06.889Z,27.55
2018-12-22T05:24:08.405Z,28.32
2018-12-22T05:25:09.960Z,29.60
2018-12-22T05:26:11.342Z,28.73
2018-12-22T05:27:12.920Z,27.15
2018-12-22T05:28:14.272Z,29.48
2018-12-22T05:29:15.757Z,29.27
2018-12-22T05:30:17.226Z,27.77
2018-12-22T05:31:18.694Z,27.98
2018-12-22T05:32:20.246Z,28.65
2018-12-22T05:33:21.737Z,25.88
2018-12-22T05:34:23.328Z,27.40
2018-12-22T05:35:24.709Z,27.98
2018-12-22T05:36:26.095Z,28.47
2018-12-22T05:37:27.529Z,28.05
2018-12-22T05:38:28.961Z,28.60
2018-12-22T05:39:30.322Z,27.93
2018-12-22T05:40:31.706Z,26.62
2018-12-22T05:41:33.165Z,27.42
2018-12-22T05:43:41.485Z,28.52
2018-12-22T05:44:42.976Z,27.98
2018-12-22T05:45:44.348Z,27.35
2018-12-22T05:46:45.863Z,27.42
2018-12-22T05:47:47.277Z,26.45
2018-12-22T05:48:48.660Z,25.65
2018-12-22T05:49:50.041Z,26.00
2018-12-22T05:50:51.444Z,28.42
2018-12-22T05:51:53.043Z,25.85
2018-12-22T05:52:54.476Z,23.57
2018-12-22T05:53:55.860Z,24.27
2018-12-22T05:54:57.269Z,23.87
2018-12-22T05:55:59.826Z,24.87
2018-12-22T05:57:01.358Z,25.27
2018-12-22T05:58:02.906Z,25.12
2018-12-22T05:59:04.392Z,25.30
2018-12-22T06:00:05.913Z,26.12
2018-12-22T06:01:07.404Z,27.02
2018-12-22T06:02:08.909Z,26.75
2018-12-22T06:03:10.430Z,26.97
2018-12-22T06:04:11.808Z,26.05
2018-12-22T06:05:13.197Z,27.67
2018-12-22T06:06:14.573Z,26.80
2018-12-22T06:07:15.953Z,25.60
2018-12-22T06:08:17.384Z,26.00
2018-12-22T06:09:18.966Z,24.25
2018-12-22T06:10:20.540Z,24.07
2018-12-22T06:11:22.029Z,24.23
2018-12-22T06:12:23.506Z,24.85
2018-12-22T06:13:25.086Z,23.27
2018-12-22T06:14:26.582Z,23.15
2018-12-22T06:15:27.997Z,23.20
2018-12-22T06:16:29.403Z,22.50
2018-12-22T06:17:30.780Z,22.75
2018-12-22T06:18:32.288Z,23.75
2018-12-22T06:19:33.669Z,23.90
2018-12-22T06:20:36.153Z,22.37
2018-12-22T06:21:37.682Z,23.07
2018-12-22T06:22:39.153Z,22.80
2018-12-22T06:23:40.753Z,25.05
2018-12-22T06:24:42.238Z,23.50
2018-12-22T06:25:43.730Z,24.12
2018-12-22T06:26:45.223Z,24.63
2018-12-22T06:27:46.721Z,24.32
2018-12-22T06:28:48.249Z,23.20
2018-12-22T06:29:49.876Z,24.00
2018-12-22T06:30:51.401Z,25.65
2018-12-22T06:31:52.797Z,23.60
2018-12-22T06:32:54.277Z,24.47
2018-12-22T06:33:55.776Z,24.82
2018-12-22T06:34:57.152Z,23.27
2018-12-22T06:35:58.685Z,23.98
2018-12-22T06:37:00.176Z,24.35
2018-12-22T06:38:01.564Z,23.35
2018-12-22T06:39:03.022Z,25.02
2018-12-22T06:40:04.505Z,23.40
2018-12-22T06:41:06.025Z,24.30
2018-12-22T06:42:07.621Z,24.35
2018-12-22T06:43:09.173Z,23.83
2018-12-22T06:44:10.646Z,23.22
2018-12-22T06:45:12.149Z,25.12
2018-12-22T06:46:13.552Z,23.20
2018-12-22T06:47:14.954Z,24.57
2018-12-22T06:48:16.420Z,24.72
2018-12-22T06:49:17.977Z,25.65
2018-12-22T06:50:19.381Z,27.48
2018-12-22T06:51:20.809Z,28.05
2018-12-22T06:52:22.184Z,26.85
2018-12-22T06:53:23.581Z,26.40
2018-12-22T06:54:25.096Z,27.00
2018-12-22T06:55:26.742Z,26.77
2018-12-22T06:56:28.156Z,26.65
2018-12-22T06:57:29.667Z,25.65
2018-12-22T06:58:31.154Z,24.90
2018-12-22T06:59:32.649Z,25.85
2018-12-22T07:00:34.077Z,26.02
2018-12-22T07:01:35.487Z,25.70
2018-12-22T07:02:36.908Z,26.75
2018-12-22T07:03:38.355Z,26.52
2018-12-22T07:04:39.773Z,25.95
2018-12-22T07:05:41.494Z,27.82
2018-12-22T07:06:43.049Z,26.40
2018-12-22T07:07:44.458Z,25.72
2018-12-22T07:08:45.875Z,27.23
2018-12-22T07:09:47.342Z,25.77
2018-12-22T07:10:48.770Z,26.45
2018-12-22T07:11:50.197Z,25.57
2018-12-22T07:12:51.576Z,26.93
2018-12-22T07:13:53.091Z,26.57
2018-12-22T07:14:54.672Z,26.35
2018-12-22T07:15:56.023Z,27.10
2018-12-22T07:16:57.510Z,26.73
2018-12-22T07:17:58.957Z,25.80
2018-12-22T07:19:00.348Z,25.25
2018-12-22T07:20:01.767Z,25.62
2018-12-22T07:21:03.197Z,25.52
2018-12-22T07:22:04.749Z,23.05
2018-12-22T07:23:06.140Z,24.77
2018-12-22T07:24:07.532Z,25.23
2018-12-22T07:25:08.952Z,25.40
2018-12-22T07:26:10.322Z,26.62
2018-12-22T07:27:11.728Z,26.25
2018-12-22T07:28:13.105Z,24.77
2018-12-22T07:29:14.495Z,24.50
2018-12-22T07:30:15.940Z,23.67
2018-12-22T07:31:17.422Z,23.65
2018-12-22T07:32:18.833Z,23.52
2018-12-22T07:33:20.270Z,22.02
2018-12-22T07:34:21.669Z,22.20
2018-12-22T07:35:23.128Z,23.20
2018-12-22T07:36:25.349Z,22.25
2018-12-22T07:37:26.863Z,21.97
2018-12-22T07:38:28.307Z,21.37
2018-12-22T07:39:29.714Z,22.10
2018-12-22T07:40:31.162Z,22.70
2018-12-22T07:41:32.557Z,21.55
2018-12-22T07:42:33.978Z,21.12
2018-12-22T07:43:35.405Z,21.90
2018-12-22T07:44:37.197Z,23.92
2018-12-22T07:45:38.686Z,22.93
2018-12-22T07:46:40.156Z,21.68
2018-12-22T07:47:41.566Z,22.70
2018-12-22T07:48:42.960Z,22.13
2018-12-22T07:49:44.384Z,20.92
2018-12-22T07:50:45.816Z,23.35
2018-12-22T07:51:47.249Z,22.80
2018-12-22T07:52:51.732Z,22.82
2018-12-22T07:53:52.163Z,23.47
2018-12-22T07:54:53.605Z,22.35
2018-12-22T07:55:55.157Z,23.80
2018-12-22T07:56:56.710Z,24.18
2018-12-22T07:57:59.478Z,23.62
2018-12-22T07:59:01.089Z,24.15
2018-12-22T08:00:02.522Z,24.47
2018-12-22T08:01:04.001Z,24.87
2018-12-22T08:02:05.435Z,26.30
2018-12-22T08:03:06.883Z,27.55
2018-12-22T08:04:09.544Z,27.00
2018-12-22T08:05:10.933Z,27.77
2018-12-22T08:06:12.436Z,28.27
2018-12-22T08:07:13.845Z,27.67
2018-12-22T08:08:15.231Z,28.47
2018-12-22T08:09:16.593Z,29.82
2018-12-22T08:10:18.001Z,29.85
2018-12-22T08:11:20.584Z,32.73
2018-12-22T08:12:22.002Z,31.17
2018-12-22T08:13:23.479Z,30.30
2018-12-22T08:14:24.917Z,31.57
2018-12-22T08:15:26.373Z,30.75
2018-12-22T08:16:27.889Z,32.98
2018-12-22T08:17:29.329Z,30.32
2018-12-22T08:18:30.774Z,31.25
2018-12-22T08:19:32.291Z,29.98
2018-12-22T08:20:33.724Z,30.15
2018-12-22T08:21:35.287Z,30.70
2018-12-22T08:22:36.683Z,30.17
2018-12-22T08:23:38.130Z,29.75
2018-12-22T08:24:40.283Z,31.80
2018-12-22T08:25:41.730Z,31.25
2018-12-22T08:26:43.882Z,33.53
2018-12-22T08:27:45.224Z,32.50
2018-12-22T08:28:46.689Z,33.63
2018-12-22T08:29:48.130Z,33.95
2018-12-22T08:30:49.569Z,33.23
2018-12-22T08:31:51.098Z,32.78
2018-12-22T08:32:52.529Z,33.53
2018-12-22T08:33:54.038Z,32.67
2018-12-22T08:34:55.402Z,32.35
2018-12-22T08:35:56.953Z,32.20
2018-12-22T08:36:58.460Z,33.53
2018-12-22T08:37:59.886Z,31.57
2018-12-22T08:39:01.330Z,32.35
2018-12-22T08:40:02.759Z,31.35
2018-12-22T08:41:04.141Z,32.33
2018-12-22T08:42:05.663Z,33.33
2018-12-22T08:43:07.077Z,34.45
2018-12-22T08:45:15.111Z,34.27
2018-12-22T08:46:16.563Z,35.63
2018-12-22T08:47:18.036Z,35.58
2018-12-22T08:48:19.443Z,37.25
2018-12-22T08:49:20.877Z,37.63
2018-12-22T08:50:24.772Z,40.98
2018-12-22T08:51:26.388Z,39.50
2018-12-22T08:52:27.833Z,37.15
2018-12-22T08:53:29.219Z,38.40
2018-12-22T08:54:30.649Z,40.28
2018-12-22T08:55:32.027Z,42.55
2018-12-22T08:56:33.467Z,42.27
2018-12-22T08:57:39.909Z,38.60
2018-12-22T08:58:41.279Z,34.63
2018-12-22T08:59:42.722Z,32.17
2018-12-22T09:00:51.943Z,29.32
2018-12-22T09:01:47.724Z,30.00
2018-12-22T09:02:49.134Z,27.40
2018-12-22T09:03:50.565Z,27.00
2018-12-22T09:04:51.974Z,25.20
2018-12-22T09:05:53.374Z,24.63
2018-12-22T09:06:54.778Z,25.05
2018-12-22T09:07:56.264Z,25.37
2018-12-22T09:08:57.629Z,27.02
2018-12-22T09:09:59.068Z,27.93
2018-12-22T09:11:00.495Z,27.05
2018-12-22T09:12:01.894Z,28.75
2018-12-22T09:13:03.351Z,28.65
2018-12-22T09:14:04.757Z,28.10
2018-12-22T09:15:06.207Z,27.35
2018-12-22T09:16:07.638Z,28.65
2018-12-22T09:17:09.069Z,27.20
2018-12-22T09:18:10.494Z,29.20
2018-12-22T09:19:11.977Z,29.00
2018-12-22T09:20:13.371Z,28.23
2018-12-22T09:21:14.763Z,27.85
2018-12-22T09:22:16.185Z,29.65
2018-12-22T09:23:17.644Z,29.55
2018-12-22T09:24:19.049Z,31.30
2018-12-22T09:25:20.462Z,31.02
2018-12-22T09:26:21.965Z,30.85
2018-12-22T09:27:23.366Z,29.90
2018-12-22T09:28:24.813Z,29.20
2018-12-22T09:29:26.222Z,31.42
2018-12-22T09:30:27.794Z,33.10
2018-12-22T09:31:29.226Z,34.13
2018-12-22T09:32:30.627Z,34.67
2018-12-22T09:33:32.663Z,34.20
2018-12-22T09:34:34.067Z,36.05
2018-12-22T09:35:35.531Z,36.85
2018-12-22T09:36:36.947Z,38.15
2018-12-22T09:37:38.510Z,37.93
2018-12-22T09:38:40.001Z,37.50
2018-12-22T09:39:41.447Z,36.48
2018-12-22T09:40:42.819Z,36.50
2018-12-22T09:41:44.205Z,33.10
2018-12-22T09:42:45.630Z,35.28
2018-12-22T09:43:47.105Z,35.70
2018-12-22T09:44:48.518Z,34.88
2018-12-22T09:45:49.956Z,36.08
2018-12-22T09:46:51.360Z,36.17
2018-12-22T09:47:52.863Z,35.78
2018-12-22T09:48:54.280Z,35.50
2018-12-22T09:49:55.688Z,33.23
2018-12-22T10:03:12.057Z,27.07
2018-12-22T10:04:13.506Z,25.92
2018-12-22T10:05:14.938Z,25.27
2018-12-22T10:06:18.532Z,25.40
2018-12-22T10:07:20.159Z,22.58
2018-12-22T10:08:21.585Z,23.22
2018-12-22T10:09:23.036Z,21.17
2018-12-22T10:10:24.419Z,21.48
2018-12-22T10:11:25.826Z,20.35
2018-12-22T10:12:27.264Z,20.40
2018-12-22T10:13:28.666Z,22.85
2018-12-22T10:14:30.037Z,23.32
2018-12-22T10:15:31.581Z,23.65
2018-12-22T10:16:33.049Z,23.60
2018-12-22T10:17:34.600Z,23.62
2018-12-22T10:18:35.988Z,23.62
2018-12-22T10:19:37.403Z,22.50
2018-12-22T10:20:39.406Z,21.85
2018-12-22T10:21:40.846Z,23.22
2018-12-22T10:22:42.324Z,22.62
2018-12-22T10:23:43.712Z,22.42
2018-12-22T10:24:45.108Z,22.02
2018-12-22T10:25:46.513Z,22.55
2018-12-22T10:26:47.968Z,22.02
2018-12-22T10:27:49.365Z,22.05
2018-12-22T10:28:50.758Z,22.82
2018-12-22T10:29:52.175Z,22.93
2018-12-22T10:30:53.595Z,22.90
2018-12-22T10:31:55.021Z,22.87
2018-12-22T10:32:57.668Z,23.73
2018-12-22T10:33:59.040Z,23.27
2018-12-22T10:35:00.558Z,23.38
2018-12-22T10:36:02.070Z,24.55
2018-12-22T10:37:03.538Z,23.02
2018-12-22T10:38:04.969Z,24.02
2018-12-22T10:39:06.455Z,22.37
2018-12-22T10:40:07.912Z,21.73
2018-12-22T10:41:09.525Z,21.12
2018-12-22T10:42:11.073Z,20.75
2018-12-22T10:43:12.731Z,21.35
2018-12-22T10:44:14.105Z,20.57
2018-12-22T10:45:15.504Z,20.02
2018-12-22T10:46:16.947Z,20.52
2018-12-22T10:47:18.450Z,20.50
2018-12-22T10:48:19.848Z,20.68
2018-12-22T10:49:21.493Z,20.10
2018-12-22T10:50:22.899Z,20.52
2018-12-22T10:51:24.654Z,21.30
2018-12-22T10:52:26.422Z,20.17
2018-12-22T10:53:27.895Z,20.45
2018-12-22T10:54:29.343Z,22.75
2018-12-22T10:55:30.812Z,23.62
2018-12-22T10:56:32.236Z,23.30
2018-12-22T10:57:33.784Z,22.35
2018-12-22T10:58:35.270Z,21.87
2018-12-22T10:59:36.755Z,23.00
2018-12-22T11:00:38.155Z,22.10
2018-12-22T11:01:39.643Z,21.80
2018-12-22T11:02:41.135Z,22.15
2018-12-22T11:03:42.542Z,22.15
2018-12-22T11:04:43.937Z,22.52
2018-12-22T11:05:45.379Z,22.85
2018-12-22T11:06:46.787Z,22.40
2018-12-22T11:07:53.223Z,23.12
2018-12-22T11:08:54.648Z,24.12
2018-12-22T11:09:56.099Z,23.27
2018-12-22T11:10:57.585Z,25.30
2018-12-22T11:11:59.047Z,25.17
2018-12-22T11:13:00.656Z,25.77
2018-12-22T11:14:02.085Z,27.22
2018-12-22T11:15:03.522Z,27.90
2018-12-22T11:16:04.962Z,27.42
2018-12-22T11:17:06.379Z,28.07
2018-12-22T11:18:07.922Z,28.95
2018-12-22T11:19:09.320Z,26.20
2018-12-22T11:20:10.785Z,26.82
2018-12-22T11:21:12.198Z,29.12
2018-12-22T11:22:13.609Z,29.85
2018-12-22T11:23:20.400Z,30.70
2018-12-22T11:24:18.722Z,30.65
2018-12-22T11:25:20.138Z,26.97
2018-12-22T11:26:21.529Z,27.20
2018-12-22T11:27:22.874Z,27.85
2018-12-22T11:28:24.332Z,26.48
2018-12-22T11:29:25.733Z,26.85
2018-12-22T11:30:27.171Z,27.02
2018-12-22T11:31:35.000Z,27.98
2018-12-22T11:32:32.023Z,27.65
2018-12-22T11:33:33.512Z,26.87
2018-12-22T11:34:34.937Z,27.70
2018-12-22T11:35:36.343Z,25.45
2018-12-22T11:36:37.774Z,25.65
2018-12-22T11:37:40.456Z,25.15
2018-12-22T11:38:42.052Z,25.15
2018-12-22T11:39:43.465Z,23.12
2018-12-22T11:40:44.899Z,23.50
2018-12-22T11:41:46.318Z,21.30
2018-12-22T11:42:48.022Z,20.35
2018-12-22T11:43:49.620Z,19.37
2018-12-22T11:44:51.058Z,19.02
2018-12-22T11:45:52.454Z,20.52
2018-12-22T11:46:53.848Z,18.23
2018-12-22T11:47:55.257Z,17.87
2018-12-22T11:48:56.695Z,18.00
2018-12-22T11:49:58.117Z,17.60
2018-12-22T11:50:59.493Z,18.30
2018-12-22T11:52:00.866Z,19.15
2018-12-22T11:53:02.253Z,17.42
2018-12-22T11:54:03.725Z,18.02
2018-12-22T11:55:05.193Z,17.65
2018-12-22T11:56:06.644Z,18.45
2018-12-22T11:57:09.292Z,18.80
2018-12-22T11:58:10.763Z,18.48
2018-12-22T11:59:13.034Z,16.48
2018-12-22T12:00:14.428Z,15.95
2018-12-22T12:01:15.820Z,16.27
2018-12-22T12:02:17.223Z,15.85
2018-12-22T12:03:18.602Z,16.17
2018-12-22T12:04:20.283Z,15.98
2018-12-22T12:07:54.825Z,15.88
2018-12-22T12:08:56.279Z,15.60
2018-12-22T12:09:57.678Z,17.17
2018-12-22T12:11:00.507Z,17.20
2018-12-22T12:12:02.106Z,16.07
2018-12-22T12:13:03.543Z,16.75
2018-12-22T12:14:04.926Z,18.00
2018-12-22T12:15:06.370Z,17.50
2018-12-22T12:16:07.779Z,20.43
2018-12-22T12:17:09.138Z,17.75
2018-12-22T12:18:11.324Z,17.60
2018-12-22T12:19:12.683Z,17.70
2018-12-22T12:20:14.420Z,18.23
2018-12-22T12:21:15.801Z,16.82
2018-12-22T12:22:17.188Z,18.62
2018-12-22T12:23:18.547Z,19.23
2018-12-22T12:24:19.891Z,19.05
2018-12-22T12:25:21.296Z,18.15
2018-12-22T12:26:22.831Z,18.32
2018-12-22T12:27:24.240Z,19.45
2018-12-22T12:28:25.644Z,18.42
2018-12-22T12:29:27.046Z,18.35
2018-12-22T12:30:28.471Z,19.50
2018-12-22T12:31:29.879Z,19.87
2018-12-22T12:32:31.277Z,19.55
2018-12-22T12:33:32.679Z,19.77
2018-12-22T12:34:34.053Z,19.73
2018-12-22T12:35:35.510Z,20.12
2018-12-22T12:36:36.913Z,21.70
2018-12-22T12:37:38.340Z,22.13
2018-12-22T12:38:39.718Z,21.48
2018-12-22T12:39:41.109Z,21.05
2018-12-22T12:40:42.554Z,22.20
2018-12-22T12:41:43.937Z,22.50
2018-12-22T12:42:45.346Z,20.90
2018-12-22T12:43:46.798Z,19.77
2018-12-22T12:44:48.181Z,18.30
2018-12-22T12:45:49.581Z,19.55
2018-12-22T12:46:50.981Z,21.15
2018-12-22T12:47:52.373Z,19.32
2018-12-22T12:48:53.919Z,20.37
2018-12-22T12:49:55.310Z,20.48
2018-12-22T12:50:56.685Z,20.65
2018-12-22T12:51:58.123Z,20.70
2018-12-22T12:52:59.529Z,19.60
2018-12-22T12:54:00.926Z,20.23
2018-12-22T12:55:02.404Z,20.45
2018-12-22T12:56:03.773Z,19.12
2018-12-22T12:57:05.280Z,18.10
2018-12-22T12:58:06.725Z,19.27
2018-12-22T12:59:08.113Z,16.42
2018-12-22T13:00:09.550Z,18.87
2018-12-22T13:01:10.932Z,17.57
2018-12-22T13:02:12.311Z,17.50
2018-12-22T13:03:13.781Z,17.48
2018-12-22T13:04:15.153Z,17.77
2018-12-22T13:05:16.568Z,19.07
2018-12-22T13:06:17.938Z,18.82
2018-12-22T13:07:19.359Z,18.42
2018-12-22T13:08:20.734Z,18.20
2018-12-22T13:09:22.142Z,18.32
2018-12-22T13:10:23.561Z,18.65
2018-12-22T13:11:24.940Z,16.65
2018-12-22T13:12:26.293Z,16.85
2018-12-22T13:13:27.650Z,15.15
2018-12-22T13:14:29.005Z,16.52
2018-12-22T13:15:30.407Z,17.95
2018-12-22T13:16:31.774Z,16.35
2018-12-22T13:17:33.118Z,16.50
2018-12-22T13:19:41.214Z,16.17
2018-12-22T13:20:42.604Z,17.00
2018-12-22T13:21:43.967Z,16.55
2018-12-22T13:22:45.312Z,17.23
2018-12-22T13:23:46.698Z,17.25
2018-12-22T13:24:48.057Z,15.85
2018-12-22T13:25:49.430Z,17.48
2018-12-22T13:26:50.806Z,16.62
2018-12-22T13:27:52.158Z,17.15
2018-12-22T13:28:53.559Z,17.60
2018-12-22T13:29:55.195Z,17.95